Terminal Aerodrome Forecast
Issued by NWS

Home | Current Version | Previous Version | Text Only | Print | Product List | Glossary On
Versions: 1 2 3 4 5 6 7 8 9 10 11 12 13 14 15 16 17 18 19 20
000
FTUS42 KJAX 052321
TAFVQQ
TAF
KVQQ 052321Z 0600/0624 26004KT P6SM VCSH SCT060 BKN110 OVC250
     FM060200 00000KT P6SM SCT100 BKN200
     FM060700 00000KT 4SM BR SCT110 BKN200
     FM061200 26005KT P6SM SCT030 BKN250
     FM062100 24008KT P6SM VCTS SCT040CB=

USA.gov is the U.S. government's official web portal to all federal, state and local government web resources and services.